sensor_id;sensor_type;location;lat;lon;timestamp;P1;durP1;ratioP1;P2;durP2;ratioP2
25391;SDS011;13329;48.402;11.718;2022-12-29T00:01:52;3.85;;;1.65;;
25391;SDS011;13329;48.402;11.718;2022-12-29T00:04:17;5.15;;;1.80;;
25391;SDS011;13329;48.402;11.718;2022-12-29T00:06:42;2.53;;;1.50;;
25391;SDS011;13329;48.402;11.718;2022-12-29T00:09:08;3.20;;;1.43;;
25391;SDS011;13329;48.402;11.718;2022-12-29T00:11:33;3.85;;;1.50;;
25391;SDS011;13329;48.402;11.718;2022-12-29T00:13:58;3.23;;;1.70;;
25391;SDS011;13329;48.402;11.718;2022-12-29T00:16:43;4.25;;;1.52;;
25391;SDS011;13329;48.402;11.718;2022-12-29T00:19:09;4.45;;;1.58;;
25391;SDS011;13329;48.402;11.718;2022-12-29T00:21:53;3.45;;;1.60;;
25391;SDS011;13329;48.402;11.718;2022-12-29T00:24:37;2.40;;;1.50;;
25391;SDS011;13329;48.402;11.718;2022-12-29T00:27:21;2.58;;;1.13;;
25391;SDS011;13329;48.402;11.718;2022-12-29T00:30:08;3.25;;;1.35;;
25391;SDS011;13329;48.402;11.718;2022-12-29T00:32:53;2.28;;;1.33;;
25391;SDS011;13329;48.402;11.718;2022-12-29T00:35:59;2.03;;;1.15;;
25391;SDS011;13329;48.402;11.718;2022-12-29T00:38:22;3.45;;;1.30;;
25391;SDS011;13329;48.402;11.718;2022-12-29T00:41:06;1.83;;;1.20;;
25391;SDS011;13329;48.402;11.718;2022-12-29T00:43:50;1.30;;;1.02;;
25391;SDS011;13329;48.402;11.718;2022-12-29T00:46:34;3.03;;;1.52;;
25391;SDS011;13329;48.402;11.718;2022-12-29T00:48:59;2.15;;;1.42;;
25391;SDS011;13329;48.402;11.718;2022-12-29T00:51:44;3.33;;;1.27;;
25391;SDS011;13329;48.402;11.718;2022-12-29T00:54:09;3.10;;;1.42;;
25391;SDS011;13329;48.402;11.718;2022-12-29T00:56:34;5.37;;;1.77;;
25391;SDS011;13329;48.402;11.718;2022-12-29T00:59:03;2.50;;;1.33;;
25391;SDS011;13329;48.402;11.718;2022-12-29T01:01:29;2.72;;;1.42;;
25391;SDS011;13329;48.402;11.718;2022-12-29T01:03:54;4.95;;;1.50;;
25391;SDS011;13329;48.402;11.718;2022-12-29T01:06:19;1.20;;;1.10;;
25391;SDS011;13329;48.402;11.718;2022-12-29T01:08:44;1.87;;;1.20;;
25391;SDS011;13329;48.402;11.718;2022-12-29T01:11:10;1.45;;;1.10;;
25391;SDS011;13329;48.402;11.718;2022-12-29T01:13:36;1.85;;;1.15;;
25391;SDS011;13329;48.402;11.718;2022-12-29T01:16:03;1.77;;;1.17;;
25391;SDS011;13329;48.402;11.718;2022-12-29T01:18:28;2.35;;;1.20;;
25391;SDS011;13329;48.402;11.718;2022-12-29T01:21:03;2.03;;;1.30;;
25391;SDS011;13329;48.402;11.718;2022-12-29T01:23:29;2.20;;;1.20;;
25391;SDS011;13329;48.402;11.718;2022-12-29T01:25:54;2.73;;;1.10;;
25391;SDS011;13329;48.402;11.718;2022-12-29T01:28:19;3.97;;;1.35;;
25391;SDS011;13329;48.402;11.718;2022-12-29T01:30:44;2.63;;;1.30;;
25391;SDS011;13329;48.402;11.718;2022-12-29T01:33:10;3.78;;;1.23;;
25391;SDS011;13329;48.402;11.718;2022-12-29T01:35:35;3.22;;;1.45;;
25391;SDS011;13329;48.402;11.718;2022-12-29T01:38:00;1.97;;;1.30;;
25391;SDS011;13329;48.402;11.718;2022-12-29T01:40:25;2.10;;;1.33;;
25391;SDS011;13329;48.402;11.718;2022-12-29T01:42:50;1.53;;;0.93;;
25391;SDS011;13329;48.402;11.718;2022-12-29T01:45:16;1.97;;;1.33;;
25391;SDS011;13329;48.402;11.718;2022-12-29T01:47:46;3.05;;;1.10;;
25391;SDS011;13329;48.402;11.718;2022-12-29T01:53:21;1.73;;;1.02;;
25391;SDS011;13329;48.402;11.718;2022-12-29T01:55:48;2.70;;;2.00;;
25391;SDS011;13329;48.402;11.718;2022-12-29T01:58:14;4.45;;;1.73;;
25391;SDS011;13329;48.402;11.718;2022-12-29T02:00:42;2.92;;;1.70;;
25391;SDS011;13329;48.402;11.718;2022-12-29T02:03:07;2.60;;;1.50;;
25391;SDS011;13329;48.402;11.718;2022-12-29T02:05:38;3.50;;;1.80;;
25391;SDS011;13329;48.402;11.718;2022-12-29T02:08:04;2.40;;;1.50;;
25391;SDS011;13329;48.402;11.718;2022-12-29T02:10:30;2.75;;;1.58;;
25391;SDS011;13329;48.402;11.718;2022-12-29T02:12:56;2.40;;;1.77;;
25391;SDS011;13329;48.402;11.718;2022-12-29T02:15:23;6.25;;;2.17;;
25391;SDS011;13329;48.402;11.718;2022-12-29T02:20:37;4.15;;;1.40;;
25391;SDS011;13329;48.402;11.718;2022-12-29T02:23:18;3.05;;;1.65;;
25391;SDS011;13329;48.402;11.718;2022-12-29T02:26:04;3.22;;;1.98;;
25391;SDS011;13329;48.402;11.718;2022-12-29T02:31:19;2.88;;;1.48;;
25391;SDS011;13329;48.402;11.718;2022-12-29T02:34:00;2.50;;;1.25;;
25391;SDS011;13329;48.402;11.718;2022-12-29T02:39:12;3.47;;;1.40;;
25391;SDS011;13329;48.402;11.718;2022-12-29T02:47:12;2.17;;;1.35;;
25391;SDS011;13329;48.402;11.718;2022-12-29T02:49:41;2.50;;;1.33;;
25391;SDS011;13329;48.402;11.718;2022-12-29T02:52:16;2.65;;;1.20;;
25391;SDS011;13329;48.402;11.718;2022-12-29T02:54:42;1.70;;;0.98;;
25391;SDS011;13329;48.402;11.718;2022-12-29T02:57:09;1.45;;;1.00;;
25391;SDS011;13329;48.402;11.718;2022-12-29T02:59:35;1.73;;;0.80;;
25391;SDS011;13329;48.402;11.718;2022-12-29T03:02:05;1.15;;;0.98;;
25391;SDS011;13329;48.402;11.718;2022-12-29T03:07:29;1.13;;;0.85;;
25391;SDS011;13329;48.402;11.718;2022-12-29T03:10:02;0.70;;;0.60;;
25391;SDS011;13329;48.402;11.718;2022-12-29T03:15:34;1.27;;;0.93;;
25391;SDS011;13329;48.402;11.718;2022-12-29T03:20:50;2.35;;;0.85;;
25391;SDS011;13329;48.402;11.718;2022-12-29T03:23:17;2.17;;;0.75;;
25391;SDS011;13329;48.402;11.718;2022-12-29T03:25:46;3.22;;;0.70;;
25391;SDS011;13329;48.402;11.718;2022-12-29T03:28:12;4.00;;;0.88;;
25391;SDS011;13329;48.402;11.718;2022-12-29T03:30:40;1.90;;;0.90;;
25391;SDS011;13329;48.402;11.718;2022-12-29T03:33:10;1.63;;;0.90;;
25391;SDS011;13329;48.402;11.718;2022-12-29T03:35:36;2.83;;;1.00;;
25391;SDS011;13329;48.402;11.718;2022-12-29T03:38:10;1.33;;;0.90;;
25391;SDS011;13329;48.402;11.718;2022-12-29T03:40:36;0.88;;;0.63;;
25391;SDS011;13329;48.402;11.718;2022-12-29T03:43:03;2.05;;;0.85;;
25391;SDS011;13329;48.402;11.718;2022-12-29T03:45:29;0.65;;;0.65;;
25391;SDS011;13329;48.402;11.718;2022-12-29T03:47:54;1.03;;;0.83;;
25391;SDS011;13329;48.402;11.718;2022-12-29T03:50:19;0.87;;;0.77;;
25391;SDS011;13329;48.402;11.718;2022-12-29T03:52:45;1.93;;;0.63;;
25391;SDS011;13329;48.402;11.718;2022-12-29T03:55:10;1.73;;;0.80;;
25391;SDS011;13329;48.402;11.718;2022-12-29T03:57:35;3.13;;;0.80;;
25391;SDS011;13329;48.402;11.718;2022-12-29T04:00:00;2.27;;;0.77;;
25391;SDS011;13329;48.402;11.718;2022-12-29T04:02:25;1.08;;;0.68;;
25391;SDS011;13329;48.402;11.718;2022-12-29T04:04:51;1.60;;;0.90;;
25391;SDS011;13329;48.402;11.718;2022-12-29T04:07:16;1.63;;;0.80;;
25391;SDS011;13329;48.402;11.718;2022-12-29T04:09:41;2.40;;;0.90;;
25391;SDS011;13329;48.402;11.718;2022-12-29T04:12:06;1.37;;;0.90;;
25391;SDS011;13329;48.402;11.718;2022-12-29T04:14:31;1.40;;;0.63;;
25391;SDS011;13329;48.402;11.718;2022-12-29T04:16:56;1.75;;;0.80;;
25391;SDS011;13329;48.402;11.718;2022-12-29T04:19:21;0.90;;;0.60;;
25391;SDS011;13329;48.402;11.718;2022-12-29T04:21:47;1.20;;;0.73;;
25391;SDS011;13329;48.402;11.718;2022-12-29T04:24:12;0.70;;;0.70;;
25391;SDS011;13329;48.402;11.718;2022-12-29T04:26:38;1.80;;;1.00;;
25391;SDS011;13329;48.402;11.718;2022-12-29T04:29:03;0.93;;;0.63;;
25391;SDS011;13329;48.402;11.718;2022-12-29T04:31:28;2.73;;;0.97;;
25391;SDS011;13329;48.402;11.718;2022-12-29T04:33:53;1.47;;;0.70;;
25391;SDS011;13329;48.402;11.718;2022-12-29T04:36:18;3.00;;;0.87;;
25391;SDS011;13329;48.402;11.718;2022-12-29T04:38:44;2.55;;;0.57;;
25391;SDS011;13329;48.402;11.718;2022-12-29T04:41:09;0.77;;;0.73;;
25391;SDS011;13329;48.402;11.718;2022-12-29T04:43:34;1.30;;;0.70;;
25391;SDS011;13329;48.402;11.718;2022-12-29T04:45:59;1.67;;;0.60;;
25391;SDS011;13329;48.402;11.718;2022-12-29T04:48:24;1.02;;;0.63;;
25391;SDS011;13329;48.402;11.718;2022-12-29T04:50:49;1.38;;;0.77;;
25391;SDS011;13329;48.402;11.718;2022-12-29T04:53:15;2.00;;;0.70;;
25391;SDS011;13329;48.402;11.718;2022-12-29T04:55:40;1.75;;;0.60;;
25391;SDS011;13329;48.402;11.718;2022-12-29T04:58:06;2.90;;;0.60;;
25391;SDS011;13329;48.402;11.718;2022-12-29T05:00:31;0.73;;;0.57;;
25391;SDS011;13329;48.402;11.718;2022-12-29T05:02:56;0.90;;;0.60;;
25391;SDS011;13329;48.402;11.718;2022-12-29T05:05:21;0.80;;;0.60;;
25391;SDS011;13329;48.402;11.718;2022-12-29T05:07:46;0.60;;;0.60;;
25391;SDS011;13329;48.402;11.718;2022-12-29T05:10:12;1.30;;;0.73;;
25391;SDS011;13329;48.402;11.718;2022-12-29T05:12:37;1.23;;;0.70;;
25391;SDS011;13329;48.402;11.718;2022-12-29T05:15:03;1.02;;;1.00;;
25391;SDS011;13329;48.402;11.718;2022-12-29T05:17:29;0.68;;;0.60;;
25391;SDS011;13329;48.402;11.718;2022-12-29T05:19:54;1.23;;;0.70;;
25391;SDS011;13329;48.402;11.718;2022-12-29T05:22:19;1.33;;;0.70;;
25391;SDS011;13329;48.402;11.718;2022-12-29T05:24:44;1.63;;;0.60;;
25391;SDS011;13329;48.402;11.718;2022-12-29T05:27:09;0.40;;;0.40;;
25391;SDS011;13329;48.402;11.718;2022-12-29T05:29:34;1.45;;;0.60;;
25391;SDS011;13329;48.402;11.718;2022-12-29T05:32:00;0.63;;;0.50;;
25391;SDS011;13329;48.402;11.718;2022-12-29T05:34:25;2.10;;;0.50;;
25391;SDS011;13329;48.402;11.718;2022-12-29T05:36:50;1.33;;;0.80;;
25391;SDS011;13329;48.402;11.718;2022-12-29T05:39:15;2.95;;;0.60;;
25391;SDS011;13329;48.402;11.718;2022-12-29T05:41:40;1.50;;;0.80;;
25391;SDS011;13329;48.402;11.718;2022-12-29T05:44:06;0.93;;;0.60;;
25391;SDS011;13329;48.402;11.718;2022-12-29T05:46:31;0.88;;;0.65;;
25391;SDS011;13329;48.402;11.718;2022-12-29T05:48:56;1.10;;;0.50;;
25391;SDS011;13329;48.402;11.718;2022-12-29T05:51:21;10.80;;;2.37;;
25391;SDS011;13329;48.402;11.718;2022-12-29T05:53:46;12.07;;;4.75;;
25391;SDS011;13329;48.402;11.718;2022-12-29T05:56:11;11.98;;;2.72;;
25391;SDS011;13329;48.402;11.718;2022-12-29T05:58:37;3.40;;;0.77;;
25391;SDS011;13329;48.402;11.718;2022-12-29T06:01:02;2.90;;;0.80;;
25391;SDS011;13329;48.402;11.718;2022-12-29T06:03:27;6.00;;;1.43;;
25391;SDS011;13329;48.402;11.718;2022-12-29T06:05:52;10.40;;;3.55;;
25391;SDS011;13329;48.402;11.718;2022-12-29T06:08:17;16.17;;;5.15;;
25391;SDS011;13329;48.402;11.718;2022-12-29T06:10:42;14.05;;;6.43;;
25391;SDS011;13329;48.402;11.718;2022-12-29T06:13:07;5.13;;;1.80;;
25391;SDS011;13329;48.402;11.718;2022-12-29T06:15:33;7.13;;;2.90;;
25391;SDS011;13329;48.402;11.718;2022-12-29T06:17:58;36.58;;;10.23;;
25391;SDS011;13329;48.402;11.718;2022-12-29T06:20:23;10.13;;;3.60;;
25391;SDS011;13329;48.402;11.718;2022-12-29T06:22:49;160.33;;;38.63;;
25391;SDS011;13329;48.402;11.718;2022-12-29T06:25:14;69.18;;;19.95;;
25391;SDS011;13329;48.402;11.718;2022-12-29T06:27:39;70.20;;;17.55;;
25391;SDS011;13329;48.402;11.718;2022-12-29T06:30:04;7.57;;;2.97;;
25391;SDS011;13329;48.402;11.718;2022-12-29T06:32:30;1.02;;;0.80;;
25391;SDS011;13329;48.402;11.718;2022-12-29T06:34:55;0.70;;;0.50;;
25391;SDS011;13329;48.402;11.718;2022-12-29T06:37:20;1.27;;;0.88;;
25391;SDS011;13329;48.402;11.718;2022-12-29T06:39:45;2.87;;;1.20;;
25391;SDS011;13329;48.402;11.718;2022-12-29T06:42:10;3.60;;;1.57;;
25391;SDS011;13329;48.402;11.718;2022-12-29T06:44:35;1.98;;;1.20;;
25391;SDS011;13329;48.402;11.718;2022-12-29T06:47:01;1.05;;;0.68;;
25391;SDS011;13329;48.402;11.718;2022-12-29T06:49:26;1.13;;;0.70;;
25391;SDS011;13329;48.402;11.718;2022-12-29T06:51:51;2.07;;;0.70;;
25391;SDS011;13329;48.402;11.718;2022-12-29T06:54:16;0.57;;;0.57;;
25391;SDS011;13329;48.402;11.718;2022-12-29T06:56:41;0.95;;;0.57;;
25391;SDS011;13329;48.402;11.718;2022-12-29T06:59:07;1.52;;;0.60;;
25391;SDS011;13329;48.402;11.718;2022-12-29T07:01:32;1.48;;;0.75;;
25391;SDS011;13329;48.402;11.718;2022-12-29T07:03:57;1.52;;;0.60;;
25391;SDS011;13329;48.402;11.718;2022-12-29T07:06:23;0.88;;;0.60;;
25391;SDS011;13329;48.402;11.718;2022-12-29T07:08:48;0.40;;;0.40;;
25391;SDS011;13329;48.402;11.718;2022-12-29T07:11:13;0.70;;;0.60;;
25391;SDS011;13329;48.402;11.718;2022-12-29T07:13:38;0.60;;;0.60;;
25391;SDS011;13329;48.402;11.718;2022-12-29T07:16:07;1.50;;;0.50;;
25391;SDS011;13329;48.402;11.718;2022-12-29T07:18:32;0.70;;;0.50;;
25391;SDS011;13329;48.402;11.718;2022-12-29T07:20:57;0.97;;;0.60;;
25391;SDS011;13329;48.402;11.718;2022-12-29T07:23:23;2.65;;;0.85;;
25391;SDS011;13329;48.402;11.718;2022-12-29T07:25:48;1.43;;;1.00;;
25391;SDS011;13329;48.402;11.718;2022-12-29T07:28:13;1.07;;;0.50;;
25391;SDS011;13329;48.402;11.718;2022-12-29T07:30:38;0.93;;;0.47;;
25391;SDS011;13329;48.402;11.718;2022-12-29T07:33:04;0.98;;;0.70;;
25391;SDS011;13329;48.402;11.718;2022-12-29T07:35:29;0.52;;;0.50;;
25391;SDS011;13329;48.402;11.718;2022-12-29T07:37:54;0.80;;;0.70;;
25391;SDS011;13329;48.402;11.718;2022-12-29T07:40:19;0.83;;;0.60;;
25391;SDS011;13329;48.402;11.718;2022-12-29T07:42:44;1.93;;;1.17;;
25391;SDS011;13329;48.402;11.718;2022-12-29T07:45:10;0.30;;;0.30;;
25391;SDS011;13329;48.402;11.718;2022-12-29T07:47:35;2.30;;;0.63;;
25391;SDS011;13329;48.402;11.718;2022-12-29T07:50:00;3.13;;;1.27;;
25391;SDS011;13329;48.402;11.718;2022-12-29T07:52:25;2.67;;;1.37;;
25391;SDS011;13329;48.402;11.718;2022-12-29T07:54:50;0.70;;;0.67;;
25391;SDS011;13329;48.402;11.718;2022-12-29T07:57:16;1.33;;;0.70;;
25391;SDS011;13329;48.402;11.718;2022-12-29T07:59:41;2.72;;;0.80;;
25391;SDS011;13329;48.402;11.718;2022-12-29T08:02:08;1.30;;;0.70;;
25391;SDS011;13329;48.402;11.718;2022-12-29T08:04:34;1.45;;;0.80;;
25391;SDS011;13329;48.402;11.718;2022-12-29T08:06:59;1.77;;;0.80;;
25391;SDS011;13329;48.402;11.718;2022-12-29T08:09:24;1.15;;;0.65;;
25391;SDS011;13329;48.402;11.718;2022-12-29T08:11:50;0.90;;;0.60;;
25391;SDS011;13329;48.402;11.718;2022-12-29T08:14:15;1.83;;;0.77;;
25391;SDS011;13329;48.402;11.718;2022-12-29T08:16:40;1.80;;;0.90;;
25391;SDS011;13329;48.402;11.718;2022-12-29T08:19:05;11.70;;;3.00;;
25391;SDS011;13329;48.402;11.718;2022-12-29T08:21:31;5.13;;;1.60;;
25391;SDS011;13329;48.402;11.718;2022-12-29T08:23:56;2.93;;;1.10;;
25391;SDS011;13329;48.402;11.718;2022-12-29T08:26:21;3.47;;;0.70;;
25391;SDS011;13329;48.402;11.718;2022-12-29T08:28:46;2.37;;;0.73;;
25391;SDS011;13329;48.402;11.718;2022-12-29T08:31:11;2.13;;;0.70;;
25391;SDS011;13329;48.402;11.718;2022-12-29T08:33:37;1.10;;;0.90;;
25391;SDS011;13329;48.402;11.718;2022-12-29T08:36:03;2.90;;;1.10;;
25391;SDS011;13329;48.402;11.718;2022-12-29T08:38:29;0.82;;;0.63;;
25391;SDS011;13329;48.402;11.718;2022-12-29T08:40:55;1.02;;;0.60;;
25391;SDS011;13329;48.402;11.718;2022-12-29T08:43:20;0.70;;;0.55;;
25391;SDS011;13329;48.402;11.718;2022-12-29T08:45:45;0.90;;;0.50;;
25391;SDS011;13329;48.402;11.718;2022-12-29T08:48:10;2.33;;;0.63;;
25391;SDS011;13329;48.402;11.718;2022-12-29T08:50:36;0.52;;;0.43;;
25391;SDS011;13329;48.402;11.718;2022-12-29T08:53:01;3.83;;;0.67;;
25391;SDS011;13329;48.402;11.718;2022-12-29T08:55:26;1.67;;;0.93;;
25391;SDS011;13329;48.402;11.718;2022-12-29T08:57:51;2.03;;;0.77;;
25391;SDS011;13329;48.402;11.718;2022-12-29T09:00:17;3.17;;;0.80;;
25391;SDS011;13329;48.402;11.718;2022-12-29T09:02:42;1.05;;;0.60;;
25391;SDS011;13329;48.402;11.718;2022-12-29T09:05:07;2.65;;;0.85;;
25391;SDS011;13329;48.402;11.718;2022-12-29T09:07:32;1.40;;;0.73;;
25391;SDS011;13329;48.402;11.718;2022-12-29T09:09:58;3.43;;;0.90;;
25391;SDS011;13329;48.402;11.718;2022-12-29T09:12:23;7.70;;;1.10;;
25391;SDS011;13329;48.402;11.718;2022-12-29T09:14:48;2.30;;;0.87;;
25391;SDS011;13329;48.402;11.718;2022-12-29T09:17:13;4.10;;;1.00;;
25391;SDS011;13329;48.402;11.718;2022-12-29T09:19:57;3.30;;;1.25;;
25391;SDS011;13329;48.402;11.718;2022-12-29T09:22:22;1.98;;;0.50;;
25391;SDS011;13329;48.402;11.718;2022-12-29T09:24:47;1.95;;;1.17;;
25391;SDS011;13329;48.402;11.718;2022-12-29T09:27:12;1.90;;;0.80;;
25391;SDS011;13329;48.402;11.718;2022-12-29T09:29:37;0.63;;;0.50;;
25391;SDS011;13329;48.402;11.718;2022-12-29T09:32:03;1.40;;;0.73;;
25391;SDS011;13329;48.402;11.718;2022-12-29T09:34:28;2.22;;;0.88;;
25391;SDS011;13329;48.402;11.718;2022-12-29T09:36:53;2.90;;;1.10;;
25391;SDS011;13329;48.402;11.718;2022-12-29T09:39:19;3.63;;;0.98;;
25391;SDS011;13329;48.402;11.718;2022-12-29T09:42:29;1.57;;;0.97;;
25391;SDS011;13329;48.402;11.718;2022-12-29T09:44:31;0.77;;;0.50;;
25391;SDS011;13329;48.402;11.718;2022-12-29T09:47:02;0.90;;;0.70;;
25391;SDS011;13329;48.402;11.718;2022-12-29T09:51:53;1.07;;;0.80;;
25391;SDS011;13329;48.402;11.718;2022-12-29T09:54:24;2.05;;;0.65;;
25391;SDS011;13329;48.402;11.718;2022-12-29T09:56:54;0.95;;;0.60;;
25391;SDS011;13329;48.402;11.718;2022-12-29T09:59:20;4.45;;;0.68;;
25391;SDS011;13329;48.402;11.718;2022-12-29T10:02:00;1.00;;;0.68;;
25391;SDS011;13329;48.402;11.718;2022-12-29T10:04:27;1.08;;;0.77;;
25391;SDS011;13329;48.402;11.718;2022-12-29T10:07:09;1.48;;;0.70;;
25391;SDS011;13329;48.402;11.718;2022-12-29T10:09:52;3.00;;;0.90;;
25391;SDS011;13329;48.402;11.718;2022-12-29T10:17:39;4.57;;;0.93;;
25391;SDS011;13329;48.402;11.718;2022-12-29T10:20:18;3.35;;;1.52;;
25391;SDS011;13329;48.402;11.718;2022-12-29T10:25:15;2.38;;;1.08;;
25391;SDS011;13329;48.402;11.718;2022-12-29T10:27:41;2.03;;;1.23;;
25391;SDS011;13329;48.402;11.718;2022-12-29T10:30:10;1.17;;;0.50;;
25391;SDS011;13329;48.402;11.718;2022-12-29T10:32:38;3.85;;;1.48;;
25391;SDS011;13329;48.402;11.718;2022-12-29T10:35:11;6.00;;;0.95;;
25391;SDS011;13329;48.402;11.718;2022-12-29T10:37:43;2.97;;;1.42;;
25391;SDS011;13329;48.402;11.718;2022-12-29T10:40:18;1.05;;;0.90;;
25391;SDS011;13329;48.402;11.718;2022-12-29T10:42:45;0.80;;;0.65;;
25391;SDS011;13329;48.402;11.718;2022-12-29T10:45:13;1.70;;;0.82;;
25391;SDS011;13329;48.402;11.718;2022-12-29T10:47:40;2.95;;;0.85;;
25391;SDS011;13329;48.402;11.718;2022-12-29T10:50:11;0.63;;;0.38;;
25391;SDS011;13329;48.402;11.718;2022-12-29T10:52:37;2.17;;;0.90;;
25391;SDS011;13329;48.402;11.718;2022-12-29T10:55:04;2.75;;;0.80;;
25391;SDS011;13329;48.402;11.718;2022-12-29T10:57:33;1.40;;;0.63;;
25391;SDS011;13329;48.402;11.718;2022-12-29T11:00:00;0.85;;;0.50;;
25391;SDS011;13329;48.402;11.718;2022-12-29T11:07:34;0.63;;;0.50;;
25391;SDS011;13329;48.402;11.718;2022-12-29T11:12:57;0.73;;;0.38;;
25391;SDS011;13329;48.402;11.718;2022-12-29T11:15:22;1.63;;;0.77;;
25391;SDS011;13329;48.402;11.718;2022-12-29T11:17:52;0.43;;;0.35;;
25391;SDS011;13329;48.402;11.718;2022-12-29T11:22:52;3.53;;;1.45;;
25391;SDS011;13329;48.402;11.718;2022-12-29T11:25:17;1.10;;;0.90;;
25391;SDS011;13329;48.402;11.718;2022-12-29T11:27:47;4.10;;;1.10;;
25391;SDS011;13329;48.402;11.718;2022-12-29T11:30:23;1.40;;;0.82;;
25391;SDS011;13329;48.402;11.718;2022-12-29T11:32:53;3.50;;;0.82;;
25391;SDS011;13329;48.402;11.718;2022-12-29T11:35:32;1.30;;;0.52;;
25391;SDS011;13329;48.402;11.718;2022-12-29T11:37:58;3.22;;;0.52;;
25391;SDS011;13329;48.402;11.718;2022-12-29T11:40:24;2.85;;;1.02;;
25391;SDS011;13329;48.402;11.718;2022-12-29T11:45:19;2.05;;;0.47;;
25391;SDS011;13329;48.402;11.718;2022-12-29T11:47:45;1.08;;;0.80;;
25391;SDS011;13329;48.402;11.718;2022-12-29T11:50:16;1.23;;;0.60;;
25391;SDS011;13329;48.402;11.718;2022-12-29T11:52:42;1.30;;;0.70;;
25391;SDS011;13329;48.402;11.718;2022-12-29T11:55:13;0.98;;;0.60;;
25391;SDS011;13329;48.402;11.718;2022-12-29T11:57:41;2.47;;;0.60;;
25391;SDS011;13329;48.402;11.718;2022-12-29T12:00:20;0.77;;;0.60;;
25391;SDS011;13329;48.402;11.718;2022-12-29T12:03:07;0.40;;;0.30;;
25391;SDS011;13329;48.402;11.718;2022-12-29T12:05:39;2.38;;;0.77;;
25391;SDS011;13329;48.402;11.718;2022-12-29T12:13:22;0.93;;;0.30;;
25391;SDS011;13329;48.402;11.718;2022-12-29T12:16:02;0.82;;;0.60;;
25391;SDS011;13329;48.402;11.718;2022-12-29T12:20:58;2.00;;;0.70;;
25391;SDS011;13329;48.402;11.718;2022-12-29T12:23:38;1.60;;;0.45;;
25391;SDS011;13329;48.402;11.718;2022-12-29T12:29:09;1.92;;;0.77;;
25391;SDS011;13329;48.402;11.718;2022-12-29T12:31:40;5.05;;;0.50;;
25391;SDS011;13329;48.402;11.718;2022-12-29T12:34:08;0.57;;;0.30;;
25391;SDS011;13329;48.402;11.718;2022-12-29T12:36:44;0.82;;;0.43;;
25391;SDS011;13329;48.402;11.718;2022-12-29T12:44:30;1.08;;;0.63;;
25391;SDS011;13329;48.402;11.718;2022-12-29T13:05:02;1.95;;;0.50;;
25391;SDS011;13329;48.402;11.718;2022-12-29T13:12:45;4.05;;;0.43;;
25391;SDS011;13329;48.402;11.718;2022-12-29T13:15:28;0.98;;;0.70;;
25391;SDS011;13329;48.402;11.718;2022-12-29T13:18:11;0.68;;;0.43;;
25391;SDS011;13329;48.402;11.718;2022-12-29T13:20:51;0.90;;;0.60;;
25391;SDS011;13329;48.402;11.718;2022-12-29T13:26:03;1.30;;;0.60;;
25391;SDS011;13329;48.402;11.718;2022-12-29T13:36:31;1.50;;;0.60;;
25391;SDS011;13329;48.402;11.718;2022-12-29T13:39:07;1.10;;;0.68;;
25391;SDS011;13329;48.402;11.718;2022-12-29T13:41:35;0.95;;;0.55;;
25391;SDS011;13329;48.402;11.718;2022-12-29T13:44:02;1.10;;;0.80;;
25391;SDS011;13329;48.402;11.718;2022-12-29T13:46:29;0.73;;;0.43;;
25391;SDS011;13329;48.402;11.718;2022-12-29T13:49:04;2.15;;;0.50;;
25391;SDS011;13329;48.402;11.718;2022-12-29T13:51:29;0.82;;;0.47;;
25391;SDS011;13329;48.402;11.718;2022-12-29T13:56:39;1.40;;;0.73;;
25391;SDS011;13329;48.402;11.718;2022-12-29T13:59:12;0.60;;;0.57;;
25391;SDS011;13329;48.402;11.718;2022-12-29T14:01:46;1.88;;;0.50;;
25391;SDS011;13329;48.402;11.718;2022-12-29T14:04:14;1.50;;;0.50;;
25391;SDS011;13329;48.402;11.718;2022-12-29T14:06:40;0.85;;;0.47;;
25391;SDS011;13329;48.402;11.718;2022-12-29T14:11:51;0.77;;;0.50;;
25391;SDS011;13329;48.402;11.718;2022-12-29T14:14:23;0.87;;;0.50;;
25391;SDS011;13329;48.402;11.718;2022-12-29T14:16:49;0.85;;;0.30;;
25391;SDS011;13329;48.402;11.718;2022-12-29T14:19:16;0.80;;;0.40;;
25391;SDS011;13329;48.402;11.718;2022-12-29T14:21:49;2.90;;;0.45;;
25391;SDS011;13329;48.402;11.718;2022-12-29T14:26:59;0.35;;;0.20;;
25391;SDS011;13329;48.402;11.718;2022-12-29T14:31:50;0.90;;;0.50;;
25391;SDS011;13329;48.402;11.718;2022-12-29T14:36:54;1.70;;;0.35;;
25391;SDS011;13329;48.402;11.718;2022-12-29T14:42:12;1.05;;;0.50;;
25391;SDS011;13329;48.402;11.718;2022-12-29T14:44:49;0.95;;;0.47;;
25391;SDS011;13329;48.402;11.718;2022-12-29T14:49:45;1.60;;;0.73;;
25391;SDS011;13329;48.402;11.718;2022-12-29T14:52:15;3.15;;;0.95;;
25391;SDS011;13329;48.402;11.718;2022-12-29T14:57:32;0.98;;;0.60;;
25391;SDS011;13329;48.402;11.718;2022-12-29T15:00:05;1.65;;;0.68;;
25391;SDS011;13329;48.402;11.718;2022-12-29T15:02:32;0.82;;;0.52;;
25391;SDS011;13329;48.402;11.718;2022-12-29T15:04:59;1.42;;;0.40;;
25391;SDS011;13329;48.402;11.718;2022-12-29T15:07:24;1.20;;;0.60;;
25391;SDS011;13329;48.402;11.718;2022-12-29T15:09:53;0.73;;;0.50;;
25391;SDS011;13329;48.402;11.718;2022-12-29T15:12:27;0.50;;;0.30;;
25391;SDS011;13329;48.402;11.718;2022-12-29T15:14:56;0.95;;;0.70;;
25391;SDS011;13329;48.402;11.718;2022-12-29T15:19:47;2.63;;;1.30;;
25391;SDS011;13329;48.402;11.718;2022-12-29T15:22:12;1.87;;;0.90;;
25391;SDS011;13329;48.402;11.718;2022-12-29T15:24:40;2.43;;;1.27;;
25391;SDS011;13329;48.402;11.718;2022-12-29T15:27:06;1.73;;;0.98;;
25391;SDS011;13329;48.402;11.718;2022-12-29T15:29:33;9.60;;;4.70;;
25391;SDS011;13329;48.402;11.718;2022-12-29T15:32:01;3.15;;;2.00;;
25391;SDS011;13329;48.402;11.718;2022-12-29T15:34:31;0.55;;;0.55;;
25391;SDS011;13329;48.402;11.718;2022-12-29T15:36:56;1.23;;;0.50;;
25391;SDS011;13329;48.402;11.718;2022-12-29T15:39:28;1.70;;;0.60;;
25391;SDS011;13329;48.402;11.718;2022-12-29T15:41:55;3.38;;;0.65;;
25391;SDS011;13329;48.402;11.718;2022-12-29T15:44:32;1.27;;;0.57;;
25391;SDS011;13329;48.402;11.718;2022-12-29T15:47:04;2.83;;;1.10;;
25391;SDS011;13329;48.402;11.718;2022-12-29T15:49:30;3.28;;;0.95;;
25391;SDS011;13329;48.402;11.718;2022-12-29T15:51:56;3.08;;;1.02;;
25391;SDS011;13329;48.402;11.718;2022-12-29T15:54:22;1.35;;;0.80;;
25391;SDS011;13329;48.402;11.718;2022-12-29T15:56:48;2.65;;;0.80;;
25391;SDS011;13329;48.402;11.718;2022-12-29T15:59:31;2.88;;;0.60;;
25391;SDS011;13329;48.402;11.718;2022-12-29T16:01:57;2.50;;;1.17;;
25391;SDS011;13329;48.402;11.718;2022-12-29T16:04:23;3.42;;;1.50;;
25391;SDS011;13329;48.402;11.718;2022-12-29T16:06:59;37.42;;;8.23;;
25391;SDS011;13329;48.402;11.718;2022-12-29T16:09:41;21.63;;;5.72;;
25391;SDS011;13329;48.402;11.718;2022-12-29T16:12:15;22.13;;;8.73;;
25391;SDS011;13329;48.402;11.718;2022-12-29T16:14:46;12.10;;;2.92;;
25391;SDS011;13329;48.402;11.718;2022-12-29T16:17:13;40.10;;;13.25;;
25391;SDS011;13329;48.402;11.718;2022-12-29T16:19:40;31.10;;;12.00;;
25391;SDS011;13329;48.402;11.718;2022-12-29T16:22:19;9.35;;;4.75;;
25391;SDS011;13329;48.402;11.718;2022-12-29T16:24:47;8.57;;;3.67;;
25391;SDS011;13329;48.402;11.718;2022-12-29T16:29:40;6.63;;;2.83;;
25391;SDS011;13329;48.402;11.718;2022-12-29T16:32:28;5.77;;;2.47;;
25391;SDS011;13329;48.402;11.718;2022-12-29T16:34:51;208.75;;;53.22;;
25391;SDS011;13329;48.402;11.718;2022-12-29T16:37:31;161.80;;;41.80;;
25391;SDS011;13329;48.402;11.718;2022-12-29T16:40:18;248.18;;;72.13;;
25391;SDS011;13329;48.402;11.718;2022-12-29T16:47:35;30.27;;;12.82;;
25391;SDS011;13329;48.402;11.718;2022-12-29T16:50:09;17.63;;;7.93;;